Report METAR

 

LIRU - Rome/Urbe (it-Af, Italy
Distance from station: ESE 33km
Dati ricevuti: 02/12/2022 16:50
DATI Obsoleti
Pioviggine, Nubi sparse
Pioviggine, Nubi sparse
 Vento da Variabile
Vento: Variabile 4 km/h
Temperatura: 10°C
P.to Rugiada: 9°C
Umidità: 94%
Barometro: 1016 hPa
Summary: Pioviggine
Nuvole: Few Clouds
Visibility: 3 km
Cloud details: Few Clouds 610 m
2022/12/02 15:50 LIRU 021550Z VRB02KT 3000 -RA FEW020 10/09 Q1016
LIRF - Rome/Fiumicino, Italy
Distance from station: S 36km
Dati ricevuti: 03/12/2022 06:50
Pioviggine, Parz. nuvoloso
Pioviggine, Parz. nuvoloso
 Vento da ENE
Vento: ENE 24 km/h
Temperatura: 11°C
P.to Rugiada: 10°C
Umidità: 94%
Barometro: 1014 hPa
Summary: Pioviggine
Nuvole: Parz. nuvoloso
Visibility: 10 km
Cloud details: Parz. nuvoloso 1219 m
2022/12/03 05:50 LIRF 030550Z 07013KT 9999 DZ SCT040 11/10 Q1014 NOSIG
 
LIRV - Viterbo (it-Mil), Italy
Distance from station: NNO 36km
Dati ricevuti: 03/12/2022 06:55
Sereno
Sereno
 Vento da ENE
Vento: ENE 22 km/h
Temperatura: 10°C
Temperatura Vento: 7°C
P.to Rugiada: 6°C
Umidità: 76%
Barometro: 1013 hPa
Summary: Sereno
Visibility: superiore a 10 km
2022/12/03 05:55 LIRV 030555Z 06012KT CAVOK 10/06 Q1013
LIRG - Guidonia (it-Afb, Italy
Distance from station: ESE 47km
Dati ricevuti: 02/12/2022 18:55
DATI Obsoleti
Parz. nuvoloso
Parz. nuvoloso
 Vento da N
Vento: N 6 km/h
Temperatura: 10°C
P.to Rugiada: 9°C
Umidità: 94%
Barometro: 1016 hPa
Nuvole: Parz. nuvoloso
Visibility: 10 km
Cloud details: Parz. nuvoloso 1219 m
2022/12/02 17:55 LIRG 021755Z 36003KT 9999 SCT040 10/09 Q1016
 
LIRA - Ciampino(It-Afb/, Italy
Distance from station: SE 48km
Dati ricevuti: 03/12/2022 06:50
Pioggia, Nuvoloso
Pioggia, Nuvoloso
 Vento da ESE
Vento: ESE 19 km/h
Temperatura: 11°C
P.to Rugiada: 9°C
Umidità: 88%
Barometro: 1014 hPa
Summary: Pioggia
Nuvole: Molto nuvoloso
Visibility: 6 km
Cloud details: Parz. nuvoloso 457 m
Molto nuvoloso 914 m
2022/12/03 05:50 LIRA 030550Z 12010KT 6000 RA SCT015CB BKN030 11/09 Q1014 RETS